Time;durP1;ratioP1;P1;durP2;ratioP2;P2;SDS_P1;SDS_P2;PMS_P1;PMS_P2;Temp;Humidity;BMP_temperature;BMP_pressure;BME280_temperature;BME280_humidity;BME280_pressure;Samples;Min_cycle;Max_cycle;Signal;HPM_P1;HPM_P2
2022/02/01 00:01:01;;;;;;;;;12.00;11.00;;;;;;;;5096018;28;12286;-78
2022/02/01 00:03:30;;;;;;;;;12.33;10.00;;;;;;;;5095424;28;22393;-78
2022/02/01 00:06:07;;;;;;;;;11.00;8.00;;;;;;;;5096229;28;11590;-79
2022/02/01 00:11:47;;;;;;;;;18.33;13.00;;;;;;;;5095310;28;21602;-78
2022/02/01 00:38:23;;;;;;;;;15.33;12.00;;;;;;;;5127207;27;11699;-77
2022/02/01 00:40:54;;;;;;;;;4.33;2.67;;;;;;;;5139583;27;11030;-77
2022/02/01 00:43:19;;;;;;;;;7.00;7.00;;;;;;;;5139402;27;22493;-77
2022/02/01 00:45:44;;;;;;;;;7.67;7.00;;;;;;;;5139255;27;11526;-76
2022/02/01 00:48:10;;;;;;;;;10.00;7.00;;;;;;;;5141158;27;8776;-76
2022/02/01 00:50:35;;;;;;;;;0.25;0.25;;;;;;;;5142478;27;17062;-75
2022/02/01 00:53:00;;;;;;;;;0.00;0.00;;;;;;;;5142049;27;21530;-76
2022/02/01 00:55:26;;;;;;;;;0.00;0.00;;;;;;;;5142980;27;8813;-77
2022/02/01 00:57:51;;;;;;;;;0.00;0.00;;;;;;;;5142599;27;8765;-74
2022/02/01 01:00:17;;;;;;;;;0.00;0.00;;;;;;;;5142423;27;8836;-83
2022/02/01 01:02:42;;;;;;;;;0.00;0.00;;;;;;;;5144616;27;8784;-77
2022/02/01 01:05:07;;;;;;;;;0.00;0.00;;;;;;;;5144169;27;8807;-78
2022/02/01 01:07:33;;;;;;;;;0.00;0.00;;;;;;;;5144737;27;8784;-78
2022/02/01 01:10:00;;;;;;;;;0.00;0.00;;;;;;;;5144655;27;8792;-77
2022/02/01 01:12:27;;;;;;;;;0.00;0.00;;;;;;;;5143933;27;8963;-76
2022/02/01 01:45:01;;;;;;;;;6.00;6.00;;;;;;;;5142525;27;8764;-77
2022/02/01 01:53:17;;;;;;;;;7.00;7.00;;;;;;;;5142548;27;8780;-76
2022/02/01 01:55:43;;;;;;;;;5.00;2.00;;;;;;;;5139968;27;11463;-76
2022/02/01 01:58:09;;;;;;;;;3.67;2.67;;;;;;;;5141118;27;11410;-77
2022/02/01 02:03:19;;;;;;;;;5.33;2.33;;;;;;;;5141294;27;11315;-77
2022/02/01 02:05:44;;;;;;;;;1.33;1.00;;;;;;;;5140843;27;11992;-77
2022/02/01 11:15:01;;;;;;;;;0.00;0.00;;;;;;;;5217813;27;78718;-80
2022/02/01 11:17:37;;;;;;;;;0.00;0.00;;;;;;;;5200521;27;21223;-79
2022/02/01 11:20:02;;;;;;;;;0.00;0.00;;;;;;;;5181916;27;8811;-83
2022/02/01 11:22:40;;;;;;;;;0.00;0.00;;;;;;;;5175032;27;9705;-78
2022/02/01 11:25:29;;;;;;;;;0.00;0.00;;;;;;;;5190859;27;8802;-79
2022/02/01 11:30:36;;;;;;;;;0.00;0.00;;;;;;;;5189063;27;9791;-80
2022/02/01 11:33:02;;;;;;;;;0.00;0.00;;;;;;;;5170752;27;8800;-80
2022/02/01 11:35:28;;;;;;;;;0.00;0.00;;;;;;;;5170303;27;8817;-82
2022/02/01 11:37:54;;;;;;;;;0.00;0.00;;;;;;;;5187148;27;8800;-82
2022/02/01 11:40:20;;;;;;;;;0.00;0.00;;;;;;;;5187501;27;9601;-80
2022/02/01 11:42:53;;;;;;;;;15.25;15.25;;;;;;;;5188682;27;8899;-80
2022/02/01 11:45:26;;;;;;;;;0.00;0.00;;;;;;;;5188820;27;22439;-82
2022/02/01 11:47:51;;;;;;;;;0.00;0.00;;;;;;;;5188269;27;22229;-88
2022/02/01 11:50:18;;;;;;;;;0.00;0.00;;;;;;;;5193093;27;8840;-85
2022/02/01 11:52:48;;;;;;;;;0.00;0.00;;;;;;;;5188271;27;8786;-79
2022/02/01 11:55:14;;;;;;;;;0.00;0.00;;;;;;;;5167872;27;9027;-80
2022/02/01 11:57:41;;;;;;;;;0.00;0.00;;;;;;;;5185907;27;9300;-81
2022/02/01 12:00:08;;;;;;;;;0.00;0.00;;;;;;;;5169213;27;9710;-79
2022/02/01 12:02:39;;;;;;;;;1.00;0.00;;;;;;;;5186842;27;9980;-79
2022/02/01 12:05:13;;;;;;;;;0.00;0.00;;;;;;;;5187626;27;10158;-78
2022/02/01 12:07:41;;;;;;;;;0.00;0.00;;;;;;;;5186398;27;10273;-80
2022/02/01 12:10:10;;;;;;;;;0.00;0.00;;;;;;;;5168956;27;10483;-81
2022/02/01 12:12:36;;;;;;;;;0.00;0.00;;;;;;;;5189001;27;10645;-80
2022/02/01 12:15:01;;;;;;;;;0.00;0.00;;;;;;;;5188282;27;10708;-85
2022/02/01 12:17:27;;;;;;;;;0.00;0.00;;;;;;;;5170026;27;8856;-83
2022/02/01 12:19:57;;;;;;;;;0.00;0.00;;;;;;;;5188579;27;8772;-83
2022/02/01 12:22:29;;;;;;;;;0.00;0.00;;;;;;;;5187847;27;10989;-82
2022/02/01 12:25:05;;;;;;;;;0.00;0.00;;;;;;;;5144256;27;11928;-86
2022/02/01 12:27:37;;;;;;;;;0.00;0.00;;;;;;;;5167439;27;10882;-83
2022/02/01 12:30:04;;;;;;;;;0.00;0.00;;;;;;;;5170161;27;11798;-83
2022/02/01 12:32:29;;;;;;;;;0.00;0.00;;;;;;;;5182572;27;11080;-84
2022/02/01 12:34:54;;;;;;;;;0.00;0.00;;;;;;;;5182609;27;11064;-84
2022/02/01 12:37:23;;;;;;;;;0.00;0.00;;;;;;;;5184169;27;8943;-84
2022/02/01 12:40:07;;;;;;;;;0.00;0.00;;;;;;;;5184435;27;8795;-84
2022/02/01 12:42:42;;;;;;;;;0.00;0.00;;;;;;;;5183977;27;11281;-84
2022/02/01 12:47:59;;;;;;;;;0.75;0.75;;;;;;;;5184884;27;11488;-83
2022/02/01 12:50:24;;;;;;;;;0.00;0.00;;;;;;;;5165300;27;13542;-83
2022/02/01 12:52:54;;;;;;;;;0.25;0.25;;;;;;;;5184458;27;11385;-83
2022/02/01 12:55:20;;;;;;;;;0.00;0.00;;;;;;;;5184325;27;9004;-83
2022/02/01 12:57:45;;;;;;;;;0.00;0.00;;;;;;;;5184570;27;11333;-83
2022/02/01 13:00:11;;;;;;;;;0.75;0.75;;;;;;;;5185376;27;8829;-82
2022/02/01 13:02:36;;;;;;;;;1.00;1.00;;;;;;;;5165816;27;9147;-83
2022/02/01 13:05:03;;;;;;;;;0.00;0.00;;;;;;;;5185050;27;11897;-83
2022/02/01 13:21:08;;;;;;;;;0.00;0.00;;;;;;;;5184486;27;12101;-83
2022/02/01 13:23:37;;;;;;;;;0.00;0.00;;;;;;;;5165479;27;11374;-84
2022/02/01 13:26:12;;;;;;;;;0.00;0.00;;;;;;;;5184918;27;11332;-85
2022/02/01 13:28:40;;;;;;;;;0.00;0.00;;;;;;;;5184952;27;11569;-84
2022/02/01 13:31:07;;;;;;;;;0.00;0.00;;;;;;;;5184323;27;11363;-85
2022/02/01 13:33:33;;;;;;;;;0.00;0.00;;;;;;;;5184372;27;11365;-85
2022/02/01 13:35:58;;;;;;;;;0.00;0.00;;;;;;;;5184028;27;11383;-85
2022/02/01 13:38:25;;;;;;;;;0.00;0.00;;;;;;;;5164766;27;8922;-83
2022/02/01 13:40:51;;;;;;;;;0.00;0.00;;;;;;;;5184051;27;8772;-83
2022/02/01 13:43:24;;;;;;;;;0.00;0.00;;;;;;;;5184677;27;11363;-83
2022/02/01 13:45:50;;;;;;;;;0.00;0.00;;;;;;;;5184160;27;11415;-84
2022/02/01 15:59:28;;;;;;;;;0.00;0.00;;;;;;;;5186160;27;11631;-82
2022/02/01 16:01:59;;;;;;;;;1.00;1.00;;;;;;;;5175549;27;11435;-80
2022/02/01 16:04:26;;;;;;;;;0.00;0.00;;;;;;;;5157417;27;11338;-80
2022/02/01 16:06:57;;;;;;;;;0.75;0.75;;;;;;;;5178309;27;11468;-78
2022/02/01 16:09:47;;;;;;;;;0.25;0.25;;;;;;;;5158784;27;11350;-77
2022/02/01 16:12:19;;;;;;;;;0.00;0.00;;;;;;;;5178115;27;11344;-81
2022/02/01 16:14:44;;;;;;;;;0.25;0.25;;;;;;;;5158160;27;11381;-84
2022/02/01 16:17:09;;;;;;;;;0.00;0.00;;;;;;;;5179907;27;12015;-79
2022/02/01 16:19:35;;;;;;;;;1.25;0.75;;;;;;;;5158900;27;8840;-84
2022/02/01 16:22:00;;;;;;;;;0.25;0.25;;;;;;;;5162917;22;12251;-83
2022/02/01 16:24:25;;;;;;;;;0.75;0.00;;;;;;;;5140279;27;12103;-84
2022/02/01 16:26:50;;;;;;;;;0.00;0.00;;;;;;;;5159136;27;8818;-82
2022/02/01 16:29:16;;;;;;;;;0.00;0.00;;;;;;;;5159232;27;9004;-85
2022/02/01 16:31:42;;;;;;;;;1.00;0.00;;;;;;;;5133463;27;9016;-84
2022/02/01 16:34:08;;;;;;;;;0.00;0.00;;;;;;;;5128857;27;9617;-84
2022/02/01 16:36:34;;;;;;;;;0.00;0.00;;;;;;;;5151465;27;11363;-86
2022/02/01 16:39:03;;;;;;;;;0.00;0.00;;;;;;;;5159532;27;8905;-86
2022/02/01 16:41:28;;;;;;;;;0.75;0.75;;;;;;;;5136504;27;12220;-84
2022/02/01 16:43:53;;;;;;;;;1.50;0.00;;;;;;;;5132424;27;11635;-85
2022/02/01 16:46:22;;;;;;;;;0.50;0.50;;;;;;;;5127681;27;13698;-85
2022/02/01 16:48:48;;;;;;;;;1.00;1.00;;;;;;;;5117836;27;13562;-85
2022/02/01 16:51:13;;;;;;;;;1.00;1.00;;;;;;;;5136105;27;11589;-85
2022/02/01 16:53:49;;;;;;;;;1.00;1.00;;;;;;;;5141427;27;9708;-84
2022/02/01 16:59:09;;;;;;;;;1.00;1.00;;;;;;;;5150064;27;11448;-85
2022/02/01 17:01:26;;;;;;;;;3.00;2.00;;;;;;;;5131158;27;8824;-85
2022/02/01 17:03:51;;;;;;;;;3.75;2.75;;;;;;;;5123028;28;11467;-85
2022/02/01 17:06:17;;;;;;;;;4.25;3.00;;;;;;;;5123909;28;9826;-82
2022/02/01 17:08:45;;;;;;;;;2.75;2.75;;;;;;;;5136569;27;11952;-79
2022/02/01 17:11:33;;;;;;;;;4.25;3.00;;;;;;;;5143840;27;11761;-80
2022/02/01 17:14:09;;;;;;;;;2.00;2.00;;;;;;;;5144113;27;11590;-81
2022/02/01 17:21:52;;;;;;;;;2.00;1.00;;;;;;;;5143361;27;11449;-85
2022/02/01 17:24:20;;;;;;;;;2.50;2.00;;;;;;;;5143738;27;11441;-84
2022/02/01 17:26:46;;;;;;;;;3.00;3.00;;;;;;;;5145009;27;10228;-81
2022/02/01 17:29:12;;;;;;;;;3.25;2.00;;;;;;;;5125797;27;12681;-78
2022/02/01 17:31:37;;;;;;;;;7.75;5.25;;;;;;;;5143718;27;11425;-83
2022/02/01 17:34:02;;;;;;;;;4.75;4.00;;;;;;;;5126511;27;13479;-81
2022/02/01 17:36:28;;;;;;;;;3.50;3.50;;;;;;;;5142843;27;11747;-83
2022/02/01 17:38:58;;;;;;;;;7.00;5.25;;;;;;;;5142622;27;11530;-80
2022/02/01 17:41:24;;;;;;;;;4.00;4.00;;;;;;;;5141518;27;11370;-87
2022/02/01 17:43:50;;;;;;;;;7.75;5.25;;;;;;;;5141355;27;11855;-78
2022/02/01 17:46:15;;;;;;;;;7.00;7.00;;;;;;;;5122343;27;13498;-81
2022/02/01 17:48:43;;;;;;;;;6.50;3.75;;;;;;;;5142022;27;11468;-79
2022/02/01 17:51:26;;;;;;;;;4.25;2.25;;;;;;;;5123285;27;13310;-82
2022/02/01 17:56:18;;;;;;;;;6.75;6.75;;;;;;;;5120866;28;21272;-85
2022/02/01 17:58:43;;;;;;;;;8.50;7.00;;;;;;;;5120806;28;21364;-85
2022/02/01 18:01:09;;;;;;;;;6.50;4.50;;;;;;;;5121395;28;11280;-86
2022/02/01 18:03:34;;;;;;;;;11.25;8.00;;;;;;;;5121223;28;11523;-82
2022/02/01 18:06:00;;;;;;;;;3.00;3.00;;;;;;;;5120814;28;21478;-82
2022/02/01 18:08:26;;;;;;;;;7.00;5.00;;;;;;;;5119763;28;21870;-83
2022/02/01 18:10:52;;;;;;;;;9.25;6.50;;;;;;;;5120502;28;8810;-83
2022/02/01 18:16:02;;;;;;;;;6.75;6.75;;;;;;;;5140747;27;11492;-82
2022/02/01 18:18:35;;;;;;;;;4.00;3.75;;;;;;;;5141571;27;11428;-80
2022/02/01 18:21:04;;;;;;;;;8.25;7.00;;;;;;;;5139966;27;11507;-81
2022/02/01 18:23:31;;;;;;;;;9.50;8.25;;;;;;;;5141336;27;11441;-86
2022/02/01 18:25:57;;;;;;;;;11.25;7.75;;;;;;;;5122946;27;13485;-84
2022/02/01 18:28:25;;;;;;;;;10.75;10.00;;;;;;;;5141528;27;21419;-79
2022/02/01 18:30:57;;;;;;;;;15.75;14.25;;;;;;;;5140805;27;21858;-80
2022/02/01 18:33:23;;;;;;;;;12.50;10.00;;;;;;;;5122074;27;13995;-84
2022/02/01 18:35:49;;;;;;;;;9.75;7.75;;;;;;;;5140068;27;11885;-79
2022/02/01 18:38:15;;;;;;;;;11.25;8.50;;;;;;;;5140387;27;22361;-78
2022/02/01 18:40:43;;;;;;;;;4.25;4.25;;;;;;;;5140593;27;21460;-78
2022/02/01 18:43:11;;;;;;;;;12.25;9.75;;;;;;;;5139256;27;22819;-78
2022/02/01 18:45:43;;;;;;;;;11.00;10.00;;;;;;;;5117736;27;21923;-79
2022/02/01 18:48:10;;;;;;;;;13.25;9.00;;;;;;;;5139472;27;22216;-81
2022/02/01 18:53:28;;;;;;;;;14.25;10.00;;;;;;;;5139212;27;21487;-79
2022/02/01 18:58:39;;;;;;;;;12.75;10.00;;;;;;;;5139971;27;22491;-82
2022/02/01 19:06:56;;;;;;;;;13.00;10.00;;;;;;;;5137608;27;12502;-79
2022/02/01 19:09:42;;;;;;;;;13.00;12.00;;;;;;;;5126361;27;11573;-80
2022/02/01 19:12:13;;;;;;;;;13.00;9.75;;;;;;;;5132200;27;11570;-82
2022/02/01 19:14:40;;;;;;;;;12.00;12.00;;;;;;;;5130869;27;16353;-83
2022/02/01 19:17:06;;;;;;;;;17.00;15.00;;;;;;;;5128432;27;22716;-81
2022/02/01 19:19:31;;;;;;;;;17.50;14.50;;;;;;;;5127881;27;11534;-83
2022/02/01 19:21:56;;;;;;;;;18.00;15.00;;;;;;;;5128190;27;12398;-82
2022/02/01 19:24:26;;;;;;;;;17.00;17.00;;;;;;;;5129206;27;11405;-82
2022/02/01 19:26:51;;;;;;;;;17.50;15.50;;;;;;;;5109055;27;9198;-82
2022/02/01 19:29:20;;;;;;;;;18.00;17.00;;;;;;;;5128473;27;11489;-83
2022/02/01 19:31:48;;;;;;;;;13.50;11.75;;;;;;;;5127333;27;11751;-82
2022/02/01 19:34:16;;;;;;;;;13.25;11.50;;;;;;;;5127989;27;12275;-81
2022/02/01 19:36:42;;;;;;;;;15.25;12.00;;;;;;;;5131030;27;11521;-82
2022/02/01 19:39:08;;;;;;;;;15.50;13.75;;;;;;;;5125763;27;11752;-85
2022/02/01 19:41:35;;;;;;;;;14.75;12.00;;;;;;;;5130589;27;10678;-84
2022/02/01 19:44:04;;;;;;;;;14.50;14.25;;;;;;;;5127262;27;11493;-81
2022/02/01 19:46:31;;;;;;;;;20.50;16.00;;;;;;;;5136368;27;11486;-81
2022/02/01 19:48:57;;;;;;;;;17.25;14.25;;;;;;;;5121429;27;13676;-79
2022/02/01 19:51:26;;;;;;;;;14.00;11.75;;;;;;;;5126739;27;13717;-81
2022/02/01 19:53:55;;;;;;;;;17.00;13.50;;;;;;;;5118240;28;10666;-81
2022/02/01 19:56:21;;;;;;;;;9.25;9.25;;;;;;;;5098042;28;14536;-82
2022/02/01 19:58:50;;;;;;;;;14.50;10.00;;;;;;;;5116829;28;22480;-82
2022/02/01 20:01:18;;;;;;;;;13.00;10.25;;;;;;;;5118595;27;22406;-82
2022/02/01 20:03:45;;;;;;;;;12.00;8.25;;;;;;;;5118617;27;11804;-80
2022/02/01 20:06:12;;;;;;;;;9.00;9.00;;;;;;;;5118074;27;21853;-81
2022/02/01 20:08:40;;;;;;;;;15.25;13.50;;;;;;;;5100399;28;25169;-80
2022/02/01 20:11:08;;;;;;;;;52.00;42.33;;;;;;;;5117918;27;22592;-80
2022/02/01 20:13:35;;;;;;;;;10.33;10.33;;;;;;;;5118029;28;13666;-80
2022/02/01 20:16:00;;;;;;;;;14.50;11.75;;;;;;;;5118541;27;12317;-79
2022/02/01 20:18:26;;;;;;;;;15.50;12.25;;;;;;;;5118650;27;11516;-81
2022/02/01 20:20:51;;;;;;;;;13.00;9.00;;;;;;;;5117927;27;10325;-80
2022/02/01 20:23:16;;;;;;;;;12.00;11.50;;;;;;;;5117718;27;21695;-79
2022/02/01 20:25:41;;;;;;;;;9.00;8.00;;;;;;;;5117788;27;21464;-79
2022/02/01 20:28:09;;;;;;;;;12.67;12.33;;;;;;;;5117886;27;23646;-80
2022/02/01 20:30:35;;;;;;;;;11.75;9.00;;;;;;;;5118142;27;22314;-78
2022/02/01 20:33:09;;;;;;;;;13.67;13.00;;;;;;;;5118237;27;21988;-80
2022/02/01 20:35:35;;;;;;;;;13.67;12.00;;;;;;;;5099438;27;23335;-82
2022/02/01 20:38:02;;;;;;;;;6.67;4.67;;;;;;;;5122306;27;11516;-82
2022/02/01 20:40:31;;;;;;;;;11.33;11.00;;;;;;;;5122628;27;22335;-80
2022/02/01 20:42:57;;;;;;;;;13.33;11.33;;;;;;;;5121762;27;22330;-79
2022/02/01 20:45:23;;;;;;;;;15.67;13.33;;;;;;;;5102789;28;13549;-80
2022/02/01 20:47:49;;;;;;;;;8.00;8.00;;;;;;;;5122581;27;10663;-80
2022/02/01 20:50:14;;;;;;;;;14.00;12.00;;;;;;;;5120853;27;22560;-83
2022/02/01 20:52:40;;;;;;;;;14.00;12.00;;;;;;;;5125643;27;22337;-82
2022/02/01 20:55:05;;;;;;;;;11.33;11.00;;;;;;;;5124871;27;8790;-81
2022/02/01 20:57:34;;;;;;;;;11.67;11.00;;;;;;;;5133480;27;10352;-82
2022/02/01 20:59:59;;;;;;;;;14.00;12.00;;;;;;;;5122086;28;8809;-83
2022/02/01 21:02:25;;;;;;;;;20.33;15.00;;;;;;;;5122191;28;11528;-83
2022/02/01 21:04:50;;;;;;;;;11.00;7.00;;;;;;;;5122083;28;12793;-84
2022/02/01 21:07:17;;;;;;;;;15.33;12.00;;;;;;;;5121674;28;22561;-82
2022/02/01 21:09:47;;;;;;;;;14.33;14.33;;;;;;;;5121200;28;21748;-84
2022/02/01 21:12:13;;;;;;;;;16.00;11.33;;;;;;;;5121566;28;11437;-85
2022/02/01 21:14:38;;;;;;;;;12.00;11.00;;;;;;;;5121700;28;11138;-85
2022/02/01 21:17:03;;;;;;;;;13.33;13.33;;;;;;;;5121150;28;12481;-85
2022/02/01 21:19:29;;;;;;;;;15.67;14.00;;;;;;;;5134860;27;11578;-84
2022/02/01 21:21:54;;;;;;;;;12.67;12.67;;;;;;;;5135709;27;13580;-85
2022/02/01 21:24:20;;;;;;;;;13.67;12.33;;;;;;;;5142472;27;11636;-85
2022/02/01 21:26:46;;;;;;;;;14.33;11.33;;;;;;;;5142435;27;11904;-85
2022/02/01 21:29:12;;;;;;;;;17.00;14.33;;;;;;;;5148313;27;10581;-84
2022/02/01 21:31:38;;;;;;;;;12.00;11.00;;;;;;;;5150748;27;10651;-84
2022/02/01 21:34:03;;;;;;;;;15.67;12.67;;;;;;;;5143211;27;11366;-83
2022/02/01 21:36:29;;;;;;;;;11.67;9.00;;;;;;;;5141740;27;11763;-83
2022/02/01 21:38:54;;;;;;;;;12.00;12.00;;;;;;;;5141073;27;21451;-83
2022/02/01 21:41:20;;;;;;;;;12.00;10.33;;;;;;;;5141486;27;22482;-82
2022/02/01 21:43:45;;;;;;;;;15.00;12.00;;;;;;;;5141969;27;9176;-82
2022/02/01 21:46:10;;;;;;;;;10.33;10.33;;;;;;;;5141296;27;12496;-83
2022/02/01 21:48:39;;;;;;;;;14.67;12.67;;;;;;;;5141883;27;11928;-81
2022/02/01 21:51:04;;;;;;;;;11.33;11.33;;;;;;;;5141805;27;11630;-80
2022/02/01 21:53:29;;;;;;;;;14.67;12.00;;;;;;;;5122540;27;13415;-82
2022/02/01 21:55:55;;;;;;;;;13.67;11.00;;;;;;;;5141128;27;11941;-81
2022/02/01 21:58:20;;;;;;;;;11.33;8.33;;;;;;;;5140922;27;9501;-83
2022/02/01 22:00:45;;;;;;;;;12.00;12.00;;;;;;;;5140989;27;21411;-82
2022/02/01 22:03:10;;;;;;;;;15.00;11.00;;;;;;;;5140957;27;21518;-77
2022/02/01 22:05:36;;;;;;;;;16.33;11.00;;;;;;;;5122389;27;10682;-80
2022/02/01 22:08:02;;;;;;;;;6.33;5.00;;;;;;;;5141556;27;9213;-78
2022/02/01 22:10:28;;;;;;;;;12.67;11.00;;;;;;;;5140013;27;22449;-76
2022/02/01 22:12:53;;;;;;;;;9.33;9.33;;;;;;;;5141377;27;23558;-76
2022/02/01 22:15:19;;;;;;;;;13.33;12.00;;;;;;;;5141369;27;23736;-77
2022/02/01 22:17:45;;;;;;;;;9.67;9.67;;;;;;;;5124038;27;22590;-77
2022/02/01 22:20:10;;;;;;;;;11.00;10.00;;;;;;;;5120284;28;22431;-76
2022/02/01 22:22:36;;;;;;;;;14.00;13.00;;;;;;;;5120167;28;23713;-83
2022/02/01 22:25:01;;;;;;;;;10.67;8.00;;;;;;;;5121078;28;8848;-77
2022/02/01 22:27:27;;;;;;;;;11.00;9.33;;;;;;;;5120253;28;21883;-76
2022/02/01 22:29:52;;;;;;;;;11.67;10.33;;;;;;;;5120652;28;11591;-78
2022/02/01 22:32:20;;;;;;;;;13.33;11.67;;;;;;;;5120027;28;21511;-78
2022/02/01 22:34:45;;;;;;;;;8.67;7.33;;;;;;;;5118437;28;11785;-78
2022/02/01 22:37:10;;;;;;;;;9.00;8.00;;;;;;;;5118957;28;22143;-78
2022/02/01 22:39:36;;;;;;;;;11.00;10.67;;;;;;;;5101336;28;11902;-78
2022/02/01 22:42:02;;;;;;;;;11.00;11.00;;;;;;;;5120007;28;22224;-77
2022/02/01 22:44:28;;;;;;;;;10.67;10.00;;;;;;;;5119870;28;8958;-76
2022/02/01 22:46:54;;;;;;;;;11.67;8.67;;;;;;;;5120150;28;10646;-78
2022/02/01 22:49:20;;;;;;;;;10.00;9.33;;;;;;;;5100104;28;21906;-76
2022/02/01 22:51:45;;;;;;;;;13.33;12.33;;;;;;;;5118887;28;10966;-78
2022/02/01 22:54:10;;;;;;;;;8.67;8.67;;;;;;;;5119260;28;21427;-76
2022/02/01 22:56:36;;;;;;;;;13.33;11.67;;;;;;;;5120311;28;22155;-78
2022/02/01 22:59:03;;;;;;;;;8.00;8.00;;;;;;;;5119939;27;22497;-77
2022/02/01 23:01:31;;;;;;;;;10.00;8.00;;;;;;;;5101598;28;22830;-77
2022/02/01 23:03:56;;;;;;;;;10.00;8.00;;;;;;;;5120977;28;16519;-76
2022/02/01 23:06:22;;;;;;;;;13.67;11.00;;;;;;;;5102340;28;9616;-78
2022/02/01 23:11:19;;;;;;;;;10.67;10.00;;;;;;;;5119891;28;10669;-77
2022/02/01 23:19:13;;;;;;;;;10.33;10.00;;;;;;;;5119317;28;22691;-76
2022/02/01 23:21:39;;;;;;;;;10.33;8.00;;;;;;;;5119686;28;21701;-76
2022/02/01 23:24:05;;;;;;;;;13.00;8.00;;;;;;;;5119676;27;16221;-76
2022/02/01 23:26:30;;;;;;;;;9.33;9.33;;;;;;;;5101166;28;9576;-76
2022/02/01 23:28:57;;;;;;;;;10.67;7.00;;;;;;;;5119828;28;21854;-76
2022/02/01 23:31:27;;;;;;;;;12.33;10.00;;;;;;;;5119306;28;21484;-77
2022/02/01 23:34:21;;;;;;;;;11.00;10.00;;;;;;;;5119438;28;21429;-77
2022/02/01 23:47:47;;;;;;;;;10.67;10.67;;;;;;;;5036564;28;11590;-78
2022/02/01 23:50:06;;;;;;;;;10.00;8.67;;;;;;;;5119609;28;11449;-77
2022/02/01 23:52:33;;;;;;;;;10.00;9.33;;;;;;;;5101236;28;24346;-77
2022/02/01 23:54:58;;;;;;;;;10.00;9.33;;;;;;;;5119871;28;9026;-77
2022/02/01 23:57:25;;;;;;;;;10.00;8.67;;;;;;;;5119905;28;8797;-76
2022/02/01 23:59:56;;;;;;;;;10.67;10.00;;;;;;;;5120751;28;8885;-77
